createdAt,value
2022-10-11T00:02:31.757Z,102396.34
2022-10-11T00:06:33.721Z,102405.53
2022-10-11T00:10:35.406Z,102407.31
2022-10-11T00:14:37.655Z,102412.16
2022-10-11T00:18:40.201Z,102413.00
2022-10-11T00:22:42.620Z,102412.16
2022-10-11T00:26:46.983Z,102408.88
2022-10-11T00:30:49.027Z,102412.59
2022-10-11T00:34:50.763Z,102409.44
2022-10-11T00:38:52.936Z,102412.22
2022-10-11T00:42:54.601Z,102414.97
2022-10-11T00:47:08.016Z,102417.88
2022-10-11T00:51:19.614Z,102423.53
2022-10-11T00:55:23.101Z,102429.72
2022-10-11T00:59:28.773Z,102426.09
2022-10-11T01:03:31.682Z,102426.09
2022-10-11T01:07:34.407Z,102428.88
2022-10-11T01:11:39.458Z,102435.50
2022-10-11T01:15:49.214Z,102433.25
2022-10-11T01:20:09.389Z,102434.31
2022-10-11T01:24:49.121Z,102432.75
2022-10-11T01:29:05.901Z,102441.38
2022-10-11T01:33:16.761Z,102441.50
2022-10-11T01:37:32.913Z,102445.97
2022-10-11T01:41:39.140Z,102447.03
2022-10-11T01:45:42.591Z,102440.88
2022-10-11T01:49:44.416Z,102455.16
2022-10-11T01:53:55.150Z,102450.03
2022-10-11T01:58:05.737Z,102448.56
2022-10-11T02:02:28.694Z,102452.16
2022-10-11T02:06:47.179Z,102442.59
2022-10-11T02:11:04.379Z,102450.03
2022-10-11T02:15:09.417Z,102447.50
2022-10-11T02:19:15.211Z,102439.63
2022-10-11T02:23:29.894Z,102444.09
2022-10-11T02:27:34.127Z,102441.53
2022-10-11T02:31:37.255Z,102440.69
2022-10-11T02:35:44.431Z,102444.09
2022-10-11T02:39:52.406Z,102446.03
2022-10-11T02:44:03.448Z,102440.91
2022-10-11T02:48:07.249Z,102444.75
2022-10-11T02:52:09.072Z,102443.06
2022-10-11T02:56:10.809Z,102451.03
2022-10-11T03:00:13.484Z,102450.28
2022-10-11T03:04:15.197Z,102451.34
2022-10-11T03:08:17.581Z,102452.22
2022-10-11T03:12:19.291Z,102456.66
2022-10-11T03:16:21.189Z,102456.03
2022-10-11T03:20:23.658Z,102460.72
2022-10-11T03:24:25.504Z,102461.88
2022-10-11T03:28:27.437Z,102458.56
2022-10-11T03:32:29.303Z,102465.81
2022-10-11T03:36:31.085Z,102469.44
2022-10-11T03:40:32.829Z,102477.44
2022-10-11T03:44:34.535Z,102472.53
2022-10-11T03:48:36.449Z,102471.03
2022-10-11T03:52:38.105Z,102470.28
2022-10-11T03:56:40.005Z,102479.22
2022-10-11T04:00:41.709Z,102472.19
2022-10-11T04:04:43.585Z,102474.75
2022-10-11T04:08:45.254Z,102477.53
2022-10-11T04:12:46.913Z,102478.56
2022-10-11T04:16:48.554Z,102484.84
2022-10-11T04:20:50.298Z,102477.94
2022-10-11T04:24:52.250Z,102476.22
2022-10-11T04:28:54.230Z,102490.25
2022-10-11T04:32:56.033Z,102486.66
2022-10-11T04:36:57.728Z,102489.41
2022-10-11T04:41:10.087Z,102493.88
2022-10-11T04:45:11.825Z,102494.84
2022-10-11T04:49:13.585Z,102502.81
2022-10-11T04:53:15.266Z,102504.72
2022-10-11T04:57:16.937Z,102512.81
2022-10-11T05:01:18.578Z,102511.13
2022-10-11T05:05:20.213Z,102510.25
2022-10-11T05:09:21.981Z,102505.88
2022-10-11T05:13:24.591Z,102507.69
2022-10-11T05:17:26.270Z,102512.03
2022-10-11T05:21:29.069Z,102516.44
2022-10-11T05:25:30.735Z,102521.63
2022-10-11T05:29:32.494Z,102520.66
2022-10-11T05:33:34.557Z,102526.94
2022-10-11T05:37:36.275Z,102531.94
2022-10-11T05:41:38.095Z,102533.16
2022-10-11T05:45:41.684Z,102538.25
2022-10-11T05:49:43.406Z,102548.88
2022-10-11T05:53:45.049Z,102537.31
2022-10-11T05:57:46.782Z,102544.31
2022-10-11T06:01:49.214Z,102551.53
2022-10-11T06:05:55.789Z,102555.16
2022-10-11T06:09:58.578Z,102558.59
2022-10-11T06:14:00.336Z,102562.81
2022-10-11T06:18:02.023Z,102558.59
2022-10-11T06:22:03.794Z,102561.31
2022-10-11T06:26:09.061Z,102561.31
2022-10-11T06:30:11.600Z,102554.00
2022-10-11T06:34:13.275Z,102567.94
2022-10-11T06:38:15.249Z,102568.38
2022-10-11T06:42:17.497Z,102573.28
2022-10-11T06:46:20.754Z,102572.00
2022-10-11T06:50:40.793Z,102584.59
2022-10-11T06:54:45.146Z,102584.69
2022-10-11T06:58:47.415Z,102586.94
2022-10-11T07:02:49.929Z,102594.41
2022-10-11T07:06:51.757Z,102600.16
2022-10-11T07:10:53.451Z,102603.13
2022-10-11T07:14:55.113Z,102600.78
2022-10-11T07:19:00.687Z,102606.44
2022-10-11T07:23:02.717Z,102615.72
2022-10-11T07:27:04.422Z,102611.78
2022-10-11T07:31:18.296Z,102612.91
2022-10-11T07:35:19.974Z,102619.19
2022-10-11T07:39:22.069Z,102627.13
2022-10-11T07:43:24.270Z,102623.59
2022-10-11T07:47:25.998Z,102624.72
2022-10-11T07:51:27.664Z,102629.28
2022-10-11T07:55:31.219Z,102629.34
2022-10-11T07:59:33.387Z,102636.56
2022-10-11T08:03:35.326Z,102630.53
2022-10-11T08:07:37.496Z,102645.25
2022-10-11T08:11:39.940Z,102642.94
2022-10-11T08:15:41.761Z,102650.41
2022-10-11T08:19:43.432Z,102653.34
2022-10-11T08:23:45.491Z,102651.91
2022-10-11T08:27:47.193Z,102660.19
2022-10-11T08:31:48.905Z,102666.53
2022-10-11T08:35:51.477Z,102674.56
2022-10-11T08:39:53.122Z,102673.88
2022-10-11T08:44:14.484Z,102677.53
2022-10-11T08:48:30.860Z,102675.88
2022-10-11T08:52:46.889Z,102685.06
2022-10-11T08:56:49.496Z,102683.63
2022-10-11T09:00:54.354Z,102690.19
2022-10-11T09:04:56.470Z,102690.56
2022-10-11T09:09:19.611Z,102690.94
2022-10-11T09:13:31.616Z,102680.47
2022-10-11T09:17:44.957Z,102681.31
2022-10-11T09:21:56.614Z,102677.03
2022-10-11T09:26:17.350Z,102681.66
2022-10-11T09:30:20.183Z,102682.84
2022-10-11T09:34:25.669Z,102697.53
2022-10-11T09:38:36.779Z,102691.19
2022-10-11T09:42:38.667Z,102694.44
2022-10-11T09:46:42.345Z,102690.84
2022-10-11T09:50:44.751Z,102691.94
2022-10-11T09:54:50.105Z,102699.19
2022-10-11T09:59:06.907Z,102696.72
2022-10-11T10:03:28.616Z,102692.75
2022-10-11T10:07:32.028Z,102688.81
2022-10-11T10:11:37.017Z,102695.81
2022-10-11T10:15:49.110Z,102701.53
2022-10-11T10:19:55.525Z,102700.31
2022-10-11T10:24:03.159Z,102694.06
2022-10-11T10:28:19.656Z,102693.78
2022-10-11T10:32:26.290Z,102688.38
2022-10-11T10:36:39.826Z,102690.72
2022-10-11T10:40:43.482Z,102685.19
2022-10-11T10:44:51.580Z,102685.72
2022-10-11T10:49:48.850Z,102689.53
2022-10-11T10:54:21.377Z,102682.91
2022-10-11T10:58:47.700Z,102683.25
2022-10-11T11:03:01.258Z,102681.25
2022-10-11T11:07:17.083Z,102675.38
2022-10-11T11:11:36.031Z,102678.94
2022-10-11T11:16:03.464Z,102674.34
2022-10-11T11:20:24.927Z,102678.03
2022-10-11T11:24:32.350Z,102673.81
2022-10-11T11:29:04.190Z,102676.91
2022-10-11T11:33:27.401Z,102663.69
2022-10-11T11:37:34.392Z,102672.44
2022-10-11T11:41:40.966Z,102660.34
2022-10-11T11:45:51.325Z,102658.50
2022-10-11T11:50:23.005Z,102654.84
2022-10-11T11:54:54.424Z,102655.84
2022-10-11T11:59:12.982Z,102656.13
2022-10-11T12:03:19.684Z,102658.53
2022-10-11T12:07:25.014Z,102649.91
2022-10-11T12:11:35.362Z,102644.81
2022-10-11T12:15:37.828Z,102642.56
2022-10-11T12:19:41.923Z,102645.81
2022-10-11T12:23:46.462Z,102646.38
2022-10-11T12:27:54.300Z,102637.75
2022-10-11T12:31:59.029Z,102636.34
2022-10-11T12:36:29.682Z,102629.69
2022-10-11T12:40:43.693Z,102642.00
2022-10-11T12:45:11.146Z,102631.81
2022-10-11T12:49:13.187Z,102632.22
2022-10-11T12:53:39.820Z,102633.09
2022-10-11T12:57:59.866Z,102633.50
2022-10-11T13:02:01.543Z,102625.34
2022-10-11T13:06:20.294Z,102621.09
2022-10-11T13:10:33.163Z,102617.72
2022-10-11T13:14:58.107Z,102623.06
2022-10-11T13:19:00.314Z,102607.25
2022-10-11T13:23:02.376Z,102615.69
2022-10-11T13:27:06.252Z,102612.88
2022-10-11T13:31:09.436Z,102618.53
2022-10-11T13:35:38.227Z,102612.47
2022-10-11T13:39:40.212Z,102605.13
2022-10-11T13:43:42.180Z,102603.44
2022-10-11T13:47:44.671Z,102593.38
2022-10-11T13:51:58.749Z,102597.06
2022-10-11T13:56:07.549Z,102595.50
2022-10-11T14:00:15.342Z,102590.13
2022-10-11T14:04:17.581Z,102593.38
2022-10-11T14:08:38.202Z,102592.53
2022-10-11T14:12:44.436Z,102586.31
2022-10-11T14:16:58.790Z,102600.19
2022-10-11T14:21:37.597Z,102595.22
2022-10-11T14:25:39.321Z,102593.81
2022-10-11T14:29:55.595Z,102588.72
2022-10-11T14:34:07.216Z,102579.81
2022-10-11T14:38:11.829Z,102584.31
2022-10-11T14:42:15.007Z,102584.88
2022-10-11T14:46:23.699Z,102573.84
2022-10-11T14:50:55.222Z,102578.53
2022-10-11T14:54:56.908Z,102580.91
2022-10-11T14:58:58.695Z,102581.78
2022-10-11T15:03:00.313Z,102580.22
2022-10-11T15:07:02.379Z,102569.19
2022-10-11T15:11:04.150Z,102571.16
2022-10-11T15:15:06.293Z,102566.22
2022-10-11T15:19:16.913Z,102569.19
2022-10-11T15:23:18.613Z,102567.63
2022-10-11T15:27:20.670Z,102568.06
2022-10-11T15:31:23.041Z,102561.16
2022-10-11T15:35:25.789Z,102563.41
2022-10-11T15:39:33.931Z,102560.31
2022-10-11T15:43:35.485Z,102561.59
2022-10-11T15:47:37.309Z,102548.47
2022-10-11T15:51:39.633Z,102550.75
2022-10-11T15:55:43.848Z,102564.72
2022-10-11T15:59:45.576Z,102551.72
2022-10-11T16:03:49.111Z,102559.34
2022-10-11T16:07:52.040Z,102554.38
2022-10-11T16:11:53.702Z,102555.63
2022-10-11T16:15:55.720Z,102556.91
2022-10-11T16:19:57.695Z,102555.78
2022-10-11T16:23:59.508Z,102556.31
2022-10-11T16:28:02.552Z,102556.75
2022-10-11T16:32:04.414Z,102556.44
2022-10-11T16:36:26.659Z,102554.31
2022-10-11T16:40:29.947Z,102552.19
2022-10-11T16:44:32.825Z,102555.41
2022-10-11T16:48:34.486Z,102548.91
2022-10-11T16:52:36.230Z,102555.66
2022-10-11T16:56:40.067Z,102558.31
2022-10-11T17:00:42.697Z,102560.25
2022-10-11T17:04:45.393Z,102564.59
2022-10-11T17:08:47.111Z,102563.41
2022-10-11T17:12:50.259Z,102561.16
2022-10-11T17:16:52.119Z,102564.09
2022-10-11T17:21:01.834Z,102551.81
2022-10-11T17:25:03.773Z,102553.78
2022-10-11T17:29:05.437Z,102559.41
2022-10-11T17:33:07.356Z,102560.50
2022-10-11T17:37:10.154Z,102554.81
2022-10-11T17:41:12.265Z,102560.72
2022-10-11T17:45:14.041Z,102547.38
2022-10-11T17:49:15.978Z,102556.31
2022-10-11T17:53:17.778Z,102550.88
2022-10-11T17:57:19.445Z,102549.00
2022-10-11T18:01:24.104Z,102547.97
2022-10-11T18:05:25.879Z,102549.56
2022-10-11T18:09:27.638Z,102547.53
2022-10-11T18:13:29.376Z,102548.31
2022-10-11T18:17:31.275Z,102556.69
2022-10-11T18:21:34.616Z,102548.47
2022-10-11T18:25:36.794Z,102551.50
2022-10-11T18:29:38.608Z,102549.34
2022-10-11T18:33:40.702Z,102547.88
2022-10-11T18:37:42.447Z,102546.59
2022-10-11T18:41:44.765Z,102543.41
2022-10-11T18:45:46.491Z,102549.03
2022-10-11T18:49:48.199Z,102539.69
2022-10-11T18:53:50.534Z,102540.75
2022-10-11T18:57:52.219Z,102542.97
2022-10-11T19:01:53.944Z,102537.03
2022-10-11T19:05:55.597Z,102536.41
2022-10-11T19:09:57.249Z,102530.59
2022-10-11T19:14:00.860Z,102530.09
2022-10-11T19:18:02.502Z,102537.66
2022-10-11T19:22:04.875Z,102535.34
2022-10-11T19:26:09.247Z,102526.97
2022-10-11T19:30:11.418Z,102538.00
2022-10-11T19:34:13.615Z,102540.16
2022-10-11T19:38:15.260Z,102527.06
2022-10-11T19:42:16.943Z,102529.13
2022-10-11T19:46:38.366Z,102530.34
2022-10-11T19:50:42.837Z,102534.19
2022-10-11T19:54:44.566Z,102539.81
2022-10-11T19:58:46.270Z,102537.38
2022-10-11T20:02:48.824Z,102539.53
2022-10-11T20:06:50.506Z,102538.94
2022-10-11T20:10:55.474Z,102540.75
2022-10-11T20:14:57.203Z,102548.88
2022-10-11T20:18:59.486Z,102544.53
2022-10-11T20:23:01.253Z,102544.75
2022-10-11T20:27:04.979Z,102542.31
2022-10-11T20:31:15.666Z,102538.81
2022-10-11T20:35:17.336Z,102540.72
2022-10-11T20:39:19.053Z,102535.66
2022-10-11T20:43:24.118Z,102537.69
2022-10-11T20:47:26.001Z,102536.09
2022-10-11T20:51:28.549Z,102534.41
2022-10-11T20:55:30.215Z,102536.34
2022-10-11T20:59:31.942Z,102537.41
2022-10-11T21:03:33.605Z,102530.38
2022-10-11T21:07:35.577Z,102526.88
2022-10-11T21:11:37.770Z,102537.41
2022-10-11T21:15:39.431Z,102535.84
2022-10-11T21:19:41.204Z,102536.69
2022-10-11T21:23:42.918Z,102540.22
2022-10-11T21:27:44.599Z,102545.09
2022-10-11T21:31:46.292Z,102542.06
2022-10-11T21:35:47.971Z,102532.84
2022-10-11T21:39:49.672Z,102534.44
2022-10-11T21:43:51.940Z,102534.19
2022-10-11T21:47:53.566Z,102533.22
2022-10-11T21:51:55.344Z,102534.91
2022-10-11T21:55:58.346Z,102527.16
2022-10-11T22:00:00.006Z,102532.03
2022-10-11T22:04:01.642Z,102532.41
2022-10-11T22:08:03.420Z,102528.63
2022-10-11T22:12:05.324Z,102530.09
2022-10-11T22:16:09.864Z,102536.16
2022-10-11T22:20:11.575Z,102534.47
2022-10-11T22:24:13.479Z,102522.94
2022-10-11T22:28:15.261Z,102519.78
2022-10-11T22:32:16.912Z,102521.97
2022-10-11T22:36:19.488Z,102517.94
2022-10-11T22:40:21.189Z,102517.69
2022-10-11T22:44:22.849Z,102513.09
2022-10-11T22:48:24.719Z,102508.25
2022-10-11T22:52:26.426Z,102512.84
2022-10-11T22:56:28.158Z,102505.09
2022-10-11T23:00:29.930Z,102500.22
2022-10-11T23:04:31.581Z,102500.69
2022-10-11T23:08:33.399Z,102502.13
2022-10-11T23:12:35.121Z,102500.69
2022-10-11T23:16:36.847Z,102499.81
2022-10-11T23:20:39.903Z,102497.53
2022-10-11T23:24:41.717Z,102502.84
2022-10-11T23:28:43.861Z,102507.97
2022-10-11T23:32:45.551Z,102493.66
2022-10-11T23:36:47.284Z,102497.06
2022-10-11T23:40:48.942Z,102487.84
2022-10-11T23:44:52.059Z,102492.34
2022-10-11T23:48:53.774Z,102494.88
2022-10-11T23:52:57.109Z,102486.75
2022-10-11T23:56:58.786Z,102484.06
